Time;durP1;ratioP1;P1;durP2;ratioP2;P2;SDS_P1;SDS_P2;PMS_P1;PMS_P2;Temp;Humidity;BMP_temperature;BMP_pressure;BME280_temperature;BME280_humidity;BME280_pressure;Samples;Min_cycle;Max_cycle;Signal;HPM_P1;HPM_P2
2023/03/17 00:01:16;;;;;;;62.42;37.45;;;1.60;99.90;;;;;;4974754;28;20026;-77
2023/03/17 00:03:44;;;;;;;58.65;33.90;;;1.50;99.90;;;;;;4957368;28;20034;-77
2023/03/17 00:06:15;;;;;;;55.38;31.88;;;1.50;99.90;;;;;;4963788;28;20031;-78
2023/03/17 00:08:42;;;;;;;54.67;32.15;;;1.50;99.90;;;;;;4969563;28;20073;-77
2023/03/17 00:11:16;;;;;;;51.95;30.83;;;1.50;99.90;;;;;;4955471;29;20023;-77
2023/03/17 00:13:43;;;;;;;51.83;30.65;;;1.40;99.90;;;;;;4942743;29;20027;-78
2023/03/17 00:16:21;;;;;;;54.33;31.65;;;1.40;99.90;;;;;;4955512;29;20036;-78
2023/03/17 00:18:49;;;;;;;57.28;32.95;;;1.40;99.90;;;;;;4955331;28;20087;-79
2023/03/17 00:21:19;;;;;;;44.03;30.75;;;1.40;99.90;;;;;;4955422;28;20124;-76
2023/03/17 00:23:49;;;;;;;47.63;30.45;;;1.30;99.90;;;;;;4955150;28;20110;-78
2023/03/17 00:26:15;;;;;;;47.42;29.17;;;1.20;99.90;;;;;;4955000;28;20027;-74
2023/03/17 00:28:42;;;;;;;43.53;27.67;;;1.20;99.90;;;;;;4955754;28;20035;-78
2023/03/17 00:31:19;;;;;;;41.78;27.08;;;1.10;99.90;;;;;;4970451;28;20023;-78
2023/03/17 00:33:46;;;;;;;45.40;27.55;;;1.10;99.90;;;;;;4955368;28;20364;-78
2023/03/17 00:36:21;;;;;;;43.70;29.65;;;1.10;99.90;;;;;;4960720;28;20027;-78
2023/03/17 00:38:48;;;;;;;46.40;27.90;;;1.20;99.90;;;;;;4960981;28;20512;-78
2023/03/17 00:41:15;;;;;;;45.90;28.85;;;1.10;99.90;;;;;;4967008;28;20015;-78
2023/03/17 00:43:43;;;;;;;50.55;30.42;;;1.10;99.90;;;;;;4937815;29;20042;-77
2023/03/17 00:46:17;;;;;;;53.60;33.40;;;1.10;99.90;;;;;;4974565;28;20102;-78
2023/03/17 00:48:44;;;;;;;51.67;31.85;;;1.00;99.90;;;;;;4959310;28;20024;-79
2023/03/17 00:51:11;;;;;;;48.63;31.42;;;1.00;99.90;;;;;;4955055;28;20431;-79
2023/03/17 00:53:38;;;;;;;51.28;31.35;;;1.00;99.90;;;;;;4972457;28;20174;-78
2023/03/17 00:56:15;;;;;;;49.50;30.88;;;1.00;99.90;;;;;;4968562;28;20121;-78
2023/03/17 00:58:41;;;;;;;53.13;32.38;;;1.00;99.90;;;;;;4975632;28;20042;-79
2023/03/17 01:01:08;;;;;;;49.38;32.15;;;1.00;99.90;;;;;;4992780;28;20026;-78
2023/03/17 01:03:34;;;;;;;53.80;30.60;;;1.00;99.90;;;;;;4978143;28;20030;-75
2023/03/17 01:06:01;;;;;;;46.13;31.20;;;0.90;99.90;;;;;;4978034;28;20489;-78
2023/03/17 01:08:30;;;;;;;49.92;32.15;;;1.00;99.90;;;;;;4958950;28;20106;-78
2023/03/17 01:10:56;;;;;;;49.70;30.80;;;1.00;99.90;;;;;;4970336;28;20560;-79
2023/03/17 01:13:22;;;;;;;45.92;31.10;;;1.00;99.90;;;;;;4992667;28;20520;-78
2023/03/17 01:15:50;;;;;;;45.72;28.75;;;1.00;99.90;;;;;;4960472;28;20027;-79
2023/03/17 01:18:19;;;;;;;42.78;29.88;;;0.90;99.90;;;;;;4977593;28;20038;-79
2023/03/17 01:20:45;;;;;;;54.95;30.40;;;0.80;99.90;;;;;;4977879;28;20033;-78
2023/03/17 01:23:12;;;;;;;46.78;29.27;;;0.80;99.90;;;;;;4972106;28;20386;-79
2023/03/17 01:25:40;;;;;;;42.70;29.90;;;0.80;99.90;;;;;;4941347;29;20027;-79
2023/03/17 01:28:06;;;;;;;44.00;28.50;;;0.80;99.90;;;;;;4977559;28;20034;-79
2023/03/17 01:30:37;;;;;;;45.58;28.08;;;0.80;99.90;;;;;;4949908;28;20122;-78
2023/03/17 01:33:04;;;;;;;43.83;28.95;;;0.80;99.90;;;;;;4952533;28;20041;-78
2023/03/17 01:35:30;;;;;;;41.05;28.02;;;0.80;99.90;;;;;;4977178;28;20033;-79
2023/03/17 01:37:56;;;;;;;37.15;26.80;;;0.80;99.90;;;;;;4977359;28;20043;-78
2023/03/17 01:40:26;;;;;;;43.35;28.48;;;0.80;99.90;;;;;;4977512;28;20023;-79
2023/03/17 01:43:07;;;;;;;41.83;27.70;;;0.80;99.90;;;;;;4985981;28;20500;-79
2023/03/17 01:46:13;;;;;;;41.92;27.40;;;0.80;99.90;;;;;;4977359;28;20375;-78
2023/03/17 01:48:40;;;;;;;41.30;27.50;;;0.90;99.90;;;;;;4977152;28;20023;-79
2023/03/17 01:51:10;;;;;;;40.78;26.10;;;0.70;99.90;;;;;;4977315;28;20110;-79
2023/03/17 01:53:37;;;;;;;38.72;25.38;;;0.80;99.90;;;;;;4975569;28;20055;-78
2023/03/17 01:56:04;;;;;;;41.40;26.83;;;0.80;99.90;;;;;;4967928;28;20111;-79
2023/03/17 01:58:32;;;;;;;41.00;26.55;;;0.80;99.90;;;;;;4958374;28;20047;-79
2023/03/17 02:00:58;;;;;;;40.50;26.50;;;0.70;99.90;;;;;;4991584;28;20090;-77
2023/03/17 02:03:25;;;;;;;39.38;27.08;;;0.80;99.90;;;;;;4959492;28;20030;-78
2023/03/17 02:05:52;;;;;;;40.05;26.40;;;0.80;99.90;;;;;;4976421;28;20176;-79
2023/03/17 02:08:18;;;;;;;38.72;24.02;;;0.70;99.90;;;;;;4972789;28;20043;-79
2023/03/17 02:10:48;;;;;;;45.17;28.58;;;0.80;99.90;;;;;;4973892;28;20023;-78
2023/03/17 02:13:15;;;;;;;43.70;26.95;;;0.70;99.90;;;;;;4980034;28;20407;-79
2023/03/17 02:15:42;;;;;;;41.78;25.55;;;0.80;99.90;;;;;;4972069;28;20042;-77
2023/03/17 02:18:11;;;;;;;38.20;24.20;;;0.70;99.90;;;;;;4982463;28;20481;-79
2023/03/17 02:20:37;;;;;;;39.75;24.38;;;0.60;99.90;;;;;;4991966;28;20033;-76
2023/03/17 02:23:04;;;;;;;36.95;24.58;;;0.60;99.90;;;;;;4960122;28;20038;-77
2023/03/17 02:25:33;;;;;;;36.72;25.08;;;0.60;99.90;;;;;;4977089;28;20085;-78
2023/03/17 02:28:17;;;;;;;38.17;24.98;;;0.60;99.90;;;;;;4991392;28;20035;-79
2023/03/17 02:30:43;;;;;;;41.15;26.25;;;0.70;99.90;;;;;;4976219;28;20077;-78
2023/03/17 02:33:10;;;;;;;37.25;24.70;;;0.70;99.90;;;;;;4976412;28;20027;-78
2023/03/17 02:35:37;;;;;;;37.28;24.52;;;0.60;99.90;;;;;;4976334;28;20122;-78
2023/03/17 02:38:03;;;;;;;37.20;25.50;;;0.60;99.90;;;;;;4976477;28;20027;-79
2023/03/17 02:40:29;;;;;;;36.65;24.42;;;0.60;99.90;;;;;;4976257;28;20477;-77
2023/03/17 02:42:56;;;;;;;42.10;24.25;;;0.60;99.90;;;;;;4955095;28;20047;-78
2023/03/17 02:45:27;;;;;;;40.20;24.75;;;0.60;99.90;;;;;;4976991;28;20485;-77
2023/03/17 02:47:54;;;;;;;39.88;25.55;;;0.60;99.90;;;;;;4976186;28;20090;-79
2023/03/17 02:50:23;;;;;;;44.47;26.88;;;0.50;99.90;;;;;;4946475;28;20111;-78
2023/03/17 02:52:49;;;;;;;36.03;24.15;;;0.50;99.90;;;;;;4972464;28;20038;-76
2023/03/17 02:55:16;;;;;;;42.47;27.67;;;0.40;99.90;;;;;;4956340;29;20051;-78
2023/03/17 02:57:42;;;;;;;39.10;23.83;;;0.50;99.90;;;;;;4957787;28;20046;-78
2023/03/17 03:00:13;;;;;;;41.25;25.02;;;0.50;99.90;;;;;;4957959;29;20075;-78
2023/03/17 03:02:39;;;;;;;32.75;22.27;;;0.40;99.90;;;;;;4956457;29;20041;-79
2023/03/17 03:05:06;;;;;;;36.63;23.63;;;0.40;99.90;;;;;;4956518;28;20046;-78
2023/03/17 03:07:32;;;;;;;38.17;24.23;;;0.40;99.90;;;;;;4956691;28;20038;-78
2023/03/17 03:09:58;;;;;;;38.42;23.83;;;0.40;99.90;;;;;;4956557;28;20019;-79
2023/03/17 03:12:24;;;;;;;36.47;23.35;;;0.40;99.90;;;;;;4960624;28;20384;-79
2023/03/17 03:14:50;;;;;;;36.85;22.98;;;0.50;99.90;;;;;;4957358;28;20027;-79
2023/03/17 03:17:16;;;;;;;35.17;23.27;;;0.50;99.90;;;;;;4975402;28;20121;-79
2023/03/17 03:19:42;;;;;;;32.13;23.35;;;0.50;99.90;;;;;;4975360;28;20058;-78
2023/03/17 03:22:08;;;;;;;40.42;21.17;;;0.50;99.90;;;;;;4975394;28;20027;-78
2023/03/17 03:24:34;;;;;;;33.42;22.25;;;0.50;99.90;;;;;;4958626;28;20045;-78
2023/03/17 03:27:00;;;;;;;35.33;21.08;;;0.40;99.90;;;;;;4956053;29;20064;-78
2023/03/17 03:29:26;;;;;;;38.75;23.17;;;0.40;99.90;;;;;;4956155;28;20046;-78
2023/03/17 03:31:52;;;;;;;34.00;21.27;;;0.40;99.90;;;;;;4964907;28;20035;-77
2023/03/17 03:34:18;;;;;;;33.53;21.45;;;0.40;99.90;;;;;;4964578;28;20047;-79
2023/03/17 03:36:43;;;;;;;34.45;21.48;;;0.30;99.90;;;;;;4964149;29;20125;-74
2023/03/17 03:39:09;;;;;;;36.53;21.10;;;0.30;99.90;;;;;;4973400;28;20023;-79
2023/03/17 03:41:35;;;;;;;39.40;23.10;;;0.30;99.90;;;;;;4978155;28;20041;-79
2023/03/17 03:44:01;;;;;;;35.78;21.55;;;0.30;99.90;;;;;;4979374;28;20027;-79
2023/03/17 03:46:27;;;;;;;31.85;21.40;;;0.30;99.90;;;;;;4972301;28;20031;-76
2023/03/17 03:48:54;;;;;;;32.70;21.63;;;0.20;99.90;;;;;;4962692;29;20378;-79
2023/03/17 03:51:19;;;;;;;33.83;21.67;;;0.20;99.90;;;;;;4961147;28;20104;-78
2023/03/17 03:53:47;;;;;;;32.60;20.23;;;0.10;99.90;;;;;;4961461;28;20067;-79
2023/03/17 03:56:13;;;;;;;30.83;20.38;;;0.10;99.90;;;;;;4962763;28;20110;-76
2023/03/17 03:58:40;;;;;;;34.15;20.83;;;0.10;99.90;;;;;;4957604;28;20031;-78
2023/03/17 04:01:08;;;;;;;33.65;20.30;;;0.10;99.90;;;;;;4956287;28;20031;-77
2023/03/17 04:03:35;;;;;;;37.92;20.38;;;0.00;99.90;;;;;;4955601;28;20031;-78
2023/03/17 04:06:02;;;;;;;31.23;19.75;;;0.10;99.90;;;;;;4962607;28;20039;-77
2023/03/17 04:08:28;;;;;;;34.05;21.30;;;0.00;99.90;;;;;;4974845;28;20106;-78
2023/03/17 04:10:54;;;;;;;36.55;20.85;;;0.00;99.90;;;;;;4968081;28;20090;-78
2023/03/17 04:13:20;;;;;;;31.80;20.83;;;0.00;99.90;;;;;;4971625;28;20027;-78
2023/03/17 04:15:45;;;;;;;32.97;20.08;;;0.00;99.90;;;;;;4958600;29;20042;-79
2023/03/17 04:18:11;;;;;;;38.20;19.63;;;0.00;99.90;;;;;;4955309;29;20035;-79
2023/03/17 04:20:37;;;;;;;31.60;21.15;;;-0.10;99.90;;;;;;4955327;28;20054;-79
2023/03/17 04:23:03;;;;;;;33.60;20.95;;;0.00;99.90;;;;;;4955229;28;20114;-79
2023/03/17 04:25:30;;;;;;;32.70;20.25;;;0.00;99.90;;;;;;4955655;28;20478;-79
2023/03/17 04:27:56;;;;;;;36.00;21.27;;;0.00;99.90;;;;;;4955184;28;20027;-78
2023/03/17 04:30:22;;;;;;;37.63;21.60;;;-0.10;99.90;;;;;;4955007;28;20038;-76
2023/03/17 04:32:47;;;;;;;34.95;20.05;;;-0.10;99.90;;;;;;4956031;28;20374;-78
2023/03/17 04:35:16;;;;;;;27.50;19.20;;;-0.10;99.90;;;;;;4960191;28;20038;-78
2023/03/17 04:37:42;;;;;;;31.00;20.02;;;-0.10;99.90;;;;;;4962436;28;20494;-80
2023/03/17 04:40:10;;;;;;;30.13;19.63;;;-0.20;99.90;;;;;;4974004;28;20101;-77
2023/03/17 04:42:36;;;;;;;30.88;19.35;;;-0.20;99.90;;;;;;4975186;28;20027;-78
2023/03/17 04:45:08;;;;;;;34.22;20.40;;;-0.20;99.90;;;;;;4963040;28;20389;-80
2023/03/17 04:47:34;;;;;;;32.70;20.98;;;-0.20;99.90;;;;;;4962737;28;20142;-79
2023/03/17 04:50:00;;;;;;;31.00;19.80;;;-0.10;99.90;;;;;;4968297;28;20024;-79
2023/03/17 04:52:26;;;;;;;30.80;20.15;;;-0.10;99.90;;;;;;4957353;28;20046;-77
2023/03/17 04:54:52;;;;;;;33.83;20.33;;;-0.10;99.90;;;;;;4973771;28;20047;-78
2023/03/17 04:57:18;;;;;;;33.67;21.65;;;0.10;99.90;;;;;;4963755;28;20046;-79
2023/03/17 04:59:44;;;;;;;34.42;20.13;;;0.20;99.90;;;;;;4978967;28;20054;-78
2023/03/17 05:02:10;;;;;;;34.80;20.33;;;0.30;99.90;;;;;;4967334;28;20078;-79
2023/03/17 05:04:36;;;;;;;34.05;20.65;;;0.30;99.90;;;;;;4953490;29;20030;-79
2023/03/17 05:07:02;;;;;;;38.17;21.15;;;0.40;99.90;;;;;;4956222;28;20078;-79
2023/03/17 05:09:28;;;;;;;40.72;20.10;;;0.40;99.90;;;;;;4968023;28;20023;-81
2023/03/17 05:11:54;;;;;;;31.50;19.65;;;0.80;99.90;;;;;;4971245;28;20027;-80
2023/03/17 05:14:20;;;;;;;33.13;20.15;;;1.30;99.90;;;;;;4969058;28;20026;-80
2023/03/17 05:16:47;;;;;;;29.48;17.35;;;2.00;99.90;;;;;;4955541;28;20039;-79
2023/03/17 05:19:13;;;;;;;26.77;17.27;;;2.50;99.90;;;;;;4970449;28;20497;-81
2023/03/17 05:21:39;;;;;;;30.55;17.10;;;3.10;99.90;;;;;;4974236;28;20022;-81
2023/03/17 05:24:05;;;;;;;26.50;16.45;;;3.60;99.90;;;;;;4973631;28;20111;-81
2023/03/17 05:26:31;;;;;;;31.63;20.70;;;4.20;99.90;;;;;;4974374;28;20043;-79
2023/03/17 05:28:57;;;;;;;29.70;17.60;;;4.60;99.90;;;;;;4973976;28;20027;-81
2023/03/17 05:31:23;;;;;;;30.42;16.85;;;4.90;99.10;;;;;;4960149;28;20102;-82
2023/03/17 05:33:49;;;;;;;29.55;17.67;;;5.30;97.90;;;;;;4964036;28;20022;-76
2023/03/17 05:36:16;;;;;;;24.63;15.65;;;5.50;96.20;;;;;;4969866;28;20023;-79
2023/03/17 05:38:42;;;;;;;22.48;14.88;;;5.80;96.10;;;;;;4970933;28;20434;-79
2023/03/17 05:41:09;;;;;;;27.75;17.77;;;6.40;95.90;;;;;;4974077;28;20027;-80
2023/03/17 05:43:36;;;;;;;28.65;19.95;;;6.40;93.50;;;;;;4977711;28;20022;-80
2023/03/17 05:46:02;;;;;;;34.85;22.25;;;6.50;93.80;;;;;;4976947;28;20034;-80
2023/03/17 05:48:31;;;;;;;32.60;20.08;;;7.00;93.00;;;;;;4972504;28;20494;-81
2023/03/17 05:50:56;;;;;;;26.30;16.70;;;7.40;93.10;;;;;;4972227;28;20035;-80
2023/03/17 05:53:22;;;;;;;25.13;15.45;;;7.40;93.00;;;;;;4974073;28;20049;-78
2023/03/17 05:55:49;;;;;;;23.77;15.57;;;7.70;92.70;;;;;;4976686;28;20031;-79
2023/03/17 05:58:15;;;;;;;24.95;14.75;;;7.60;91.60;;;;;;4977233;28;20037;-79
2023/03/17 06:00:42;;;;;;;28.27;16.52;;;8.00;91.50;;;;;;4976566;28;20029;-79
2023/03/17 06:03:08;;;;;;;26.23;15.18;;;8.20;92.00;;;;;;4972634;28;20019;-79
2023/03/17 06:05:34;;;;;;;28.77;15.88;;;7.90;91.80;;;;;;4971642;28;20489;-79
2023/03/17 06:08:01;;;;;;;27.63;16.42;;;7.00;91.20;;;;;;4976878;28;20031;-79
2023/03/17 06:10:27;;;;;;;27.42;16.20;;;5.60;93.40;;;;;;4958123;28;20034;-77
2023/03/17 06:12:53;;;;;;;33.70;16.52;;;5.10;94.20;;;;;;4960380;28;20035;-79
2023/03/17 06:15:19;;;;;;;28.75;17.58;;;4.70;94.90;;;;;;4964438;28;20384;-78
2023/03/17 06:17:45;;;;;;;26.67;16.33;;;4.40;96.10;;;;;;4976291;28;20035;-77
2023/03/17 06:20:13;;;;;;;29.35;16.15;;;4.20;96.40;;;;;;4967280;28;20118;-77
2023/03/17 06:22:39;;;;;;;24.02;15.13;;;4.00;97.30;;;;;;4971418;28;20035;-79
2023/03/17 06:25:05;;;;;;;25.17;15.90;;;4.10;97.50;;;;;;4976197;28;20410;-79
2023/03/17 06:27:31;;;;;;;23.98;13.85;;;3.80;98.40;;;;;;4975895;28;20045;-78
2023/03/17 06:29:59;;;;;;;26.27;15.40;;;3.70;99.50;;;;;;4976123;28;20046;-79
2023/03/17 06:32:25;;;;;;;28.80;16.52;;;3.60;99.90;;;;;;4972086;28;20466;-78
2023/03/17 06:34:52;;;;;;;27.60;15.70;;;3.70;99.90;;;;;;4975819;28;20046;-79
2023/03/17 06:37:19;;;;;;;25.67;14.73;;;3.70;99.90;;;;;;4975959;28;20501;-76
2023/03/17 06:39:45;;;;;;;29.30;15.95;;;3.80;99.90;;;;;;4956239;28;20039;-77
2023/03/17 06:42:10;;;;;;;38.45;22.23;;;3.90;99.90;;;;;;4956105;29;20272;-79
2023/03/17 06:44:36;;;;;;;30.00;15.80;;;4.10;99.90;;;;;;4955476;29;20114;-78
2023/03/17 06:47:03;;;;;;;24.15;14.13;;;4.00;99.90;;;;;;4955406;28;20102;-78
2023/03/17 06:49:30;;;;;;;23.55;14.50;;;4.00;99.90;;;;;;4956096;29;20039;-78
2023/03/17 06:51:56;;;;;;;29.50;15.20;;;4.10;99.90;;;;;;4961932;28;20055;-78
2023/03/17 06:54:24;;;;;;;25.98;13.50;;;4.10;99.90;;;;;;4944020;28;20086;-78
2023/03/17 06:56:51;;;;;;;28.08;15.82;;;4.10;99.90;;;;;;4936641;29;20102;-80
2023/03/17 06:59:18;;;;;;;27.63;15.18;;;4.40;99.90;;;;;;4937041;29;20110;-79
2023/03/17 07:01:45;;;;;;;27.45;14.50;;;4.50;99.90;;;;;;4937237;29;20157;-79
2023/03/17 07:04:11;;;;;;;27.45;14.95;;;4.40;99.90;;;;;;4950165;29;20114;-78
2023/03/17 07:06:37;;;;;;;23.20;14.35;;;4.40;99.90;;;;;;4971081;28;20031;-77
2023/03/17 07:09:04;;;;;;;26.95;14.65;;;4.60;99.90;;;;;;4956090;29;20023;-77
2023/03/17 07:11:31;;;;;;;24.70;14.57;;;4.60;99.90;;;;;;4956322;29;20050;-79
2023/03/17 07:13:57;;;;;;;24.27;13.38;;;4.60;99.90;;;;;;4955684;29;20024;-78
2023/03/17 07:16:23;;;;;;;24.17;14.02;;;4.80;99.90;;;;;;4956025;29;20039;-79
2023/03/17 07:18:49;;;;;;;28.92;16.55;;;4.90;99.90;;;;;;4956065;29;20094;-78
2023/03/17 07:21:16;;;;;;;25.85;15.38;;;5.20;99.90;;;;;;4956070;29;20429;-79
2023/03/17 07:23:42;;;;;;;28.77;17.33;;;5.30;99.90;;;;;;4955782;29;20024;-78
2023/03/17 07:26:08;;;;;;;32.05;17.20;;;5.40;99.90;;;;;;4955587;29;20035;-78
2023/03/17 07:28:35;;;;;;;29.00;14.57;;;5.50;99.90;;;;;;4956149;29;20431;-77
2023/03/17 07:31:01;;;;;;;28.95;13.70;;;5.70;99.20;;;;;;4955459;29;20027;-79
2023/03/17 07:33:27;;;;;;;21.50;13.48;;;5.60;96.80;;;;;;4955825;29;20027;-79
2023/03/17 07:35:53;;;;;;;23.17;13.45;;;5.60;97.60;;;;;;4955502;29;20023;-79
2023/03/17 07:38:20;;;;;;;23.35;13.40;;;5.70;98.20;;;;;;4955716;29;20035;-78
2023/03/17 07:40:47;;;;;;;23.02;12.93;;;5.80;98.20;;;;;;4955514;29;20106;-79
2023/03/17 07:43:15;;;;;;;23.42;13.40;;;6.00;96.30;;;;;;4955643;29;20434;-78
2023/03/17 07:45:42;;;;;;;32.13;16.58;;;6.00;96.20;;;;;;4955629;29;20445;-77
2023/03/17 07:48:08;;;;;;;24.52;14.80;;;6.10;97.90;;;;;;4955897;29;20485;-79
2023/03/17 07:50:34;;;;;;;22.17;11.65;;;6.40;97.10;;;;;;4955401;29;20031;-78
2023/03/17 07:53:02;;;;;;;21.48;10.68;;;6.50;95.00;;;;;;4956417;28;20058;-79
2023/03/17 07:55:30;;;;;;;21.23;11.75;;;6.60;93.30;;;;;;4957013;28;20078;-77
2023/03/17 07:57:56;;;;;;;25.15;13.00;;;6.60;93.50;;;;;;4974707;28;20049;-79
2023/03/17 08:00:22;;;;;;;23.17;12.85;;;6.50;93.30;;;;;;4989481;28;20395;-78
2023/03/17 08:02:49;;;;;;;21.67;12.10;;;6.60;94.90;;;;;;4963287;28;20054;-78
2023/03/17 08:05:15;;;;;;;20.90;10.73;;;6.60;95.50;;;;;;4954737;28;20418;-79
2023/03/17 08:07:41;;;;;;;17.25;9.60;;;6.70;93.50;;;;;;4974662;28;20565;-79
2023/03/17 08:10:08;;;;;;;20.35;8.48;;;7.00;94.50;;;;;;4955987;28;20106;-79
2023/03/17 08:12:35;;;;;;;18.08;10.00;;;7.10;93.60;;;;;;4962755;28;20031;-78
2023/03/17 08:15:01;;;;;;;22.20;12.00;;;7.30;94.30;;;;;;4955384;28;20027;-79
2023/03/17 08:17:27;;;;;;;16.23;7.22;;;7.30;92.40;;;;;;4962937;28;20066;-79
2023/03/17 08:19:53;;;;;;;14.32;6.45;;;7.50;91.40;;;;;;4974098;28;20462;-78
2023/03/17 08:22:19;;;;;;;12.60;6.57;;;7.60;90.40;;;;;;4953792;29;20054;-78
2023/03/17 08:24:45;;;;;;;14.02;7.25;;;7.60;91.50;;;;;;4956757;28;20467;-78
2023/03/17 08:27:11;;;;;;;14.20;7.50;;;7.70;90.30;;;;;;4955260;28;20110;-76
2023/03/17 08:29:37;;;;;;;18.27;9.15;;;7.80;91.50;;;;;;4955101;29;20565;-78
2023/03/17 08:32:04;;;;;;;18.77;11.27;;;7.80;91.60;;;;;;4974382;28;20098;-79
2023/03/17 08:34:30;;;;;;;15.13;8.30;;;7.80;90.80;;;;;;4974160;28;20038;-78
2023/03/17 08:36:56;;;;;;;13.85;7.07;;;7.70;91.40;;;;;;4962640;28;20090;-78
2023/03/17 08:39:22;;;;;;;15.27;7.75;;;7.80;91.10;;;;;;4974286;28;20462;-79
2023/03/17 08:41:48;;;;;;;15.18;7.32;;;7.80;90.40;;;;;;4973271;28;20086;-79
2023/03/17 08:44:15;;;;;;;14.85;7.05;;;7.70;87.10;;;;;;4955892;28;20410;-79
2023/03/17 08:46:41;;;;;;;16.33;8.05;;;7.80;88.60;;;;;;4955142;29;20427;-78
2023/03/17 08:49:08;;;;;;;15.00;7.97;;;8.00;90.80;;;;;;4968504;28;20466;-78
2023/03/17 08:51:36;;;;;;;14.98;7.13;;;8.20;89.00;;;;;;4974406;28;20381;-79
2023/03/17 08:54:03;;;;;;;15.93;7.22;;;8.20;86.80;;;;;;4968090;28;20398;-79
2023/03/17 08:56:29;;;;;;;15.18;7.43;;;8.40;91.50;;;;;;4961344;28;20501;-79
2023/03/17 08:58:55;;;;;;;17.52;8.48;;;8.50;90.20;;;;;;4955058;28;20015;-77
2023/03/17 09:01:23;;;;;;;14.02;6.88;;;8.70;90.60;;;;;;4955417;29;20039;-76
2023/03/17 09:03:52;;;;;;;14.07;7.35;;;8.90;90.40;;;;;;4967588;28;20019;-79
2023/03/17 09:06:18;;;;;;;122.30;82.43;;;9.30;88.50;;;;;;4955095;28;20032;-78
2023/03/17 09:08:46;;;;;;;27.80;14.65;;;9.50;87.90;;;;;;4967226;28;20534;-78
2023/03/17 09:11:19;;;;;;;17.52;8.95;;;9.40;88.90;;;;;;4954930;28;20039;-74
2023/03/17 09:13:46;;;;;;;11.65;5.70;;;9.30;84.10;;;;;;4966245;28;20036;-77
2023/03/17 09:16:16;;;;;;;10.20;6.18;;;9.20;81.30;;;;;;4960917;28;20487;-77
2023/03/17 09:18:43;;;;;;;10.00;4.97;;;9.30;84.60;;;;;;4958622;28;20028;-77
2023/03/17 09:21:11;;;;;;;11.10;6.38;;;9.30;82.80;;;;;;4977407;28;20030;-75
2023/03/17 09:23:37;;;;;;;13.93;7.00;;;9.20;81.30;;;;;;4977624;28;20482;-77
2023/03/17 09:26:03;;;;;;;14.90;6.10;;;9.10;85.70;;;;;;4973487;28;21307;-77
2023/03/17 09:28:29;;;;;;;13.43;6.35;;;9.20;80.90;;;;;;4977846;28;20035;-77
2023/03/17 09:31:04;;;;;;;16.67;7.72;;;9.40;84.10;;;;;;4961522;28;20034;-75
2023/03/17 09:33:31;;;;;;;13.02;6.03;;;9.40;85.60;;;;;;4977859;28;20026;-77
2023/03/17 09:35:56;;;;;;;11.70;6.00;;;9.50;81.10;;;;;;4960229;28;20086;-77
2023/03/17 09:38:25;;;;;;;10.25;6.07;;;9.50;81.90;;;;;;4958284;28;20118;-77
2023/03/17 09:40:57;;;;;;;11.27;5.88;;;9.50;81.00;;;;;;4960060;28;20470;-78
2023/03/17 09:43:51;;;;;;;11.75;6.03;;;9.50;83.10;;;;;;4965838;28;20031;-78
2023/03/17 09:46:44;;;;;;;18.80;7.40;;;9.40;80.50;;;;;;4936777;29;20047;-76
2023/03/17 09:49:19;;;;;;;13.02;5.63;;;9.40;84.10;;;;;;4936729;29;20036;-78
2023/03/17 09:51:46;;;;;;;14.88;6.60;;;9.60;79.10;;;;;;4936475;29;20040;-78
2023/03/17 09:54:23;;;;;;;12.70;6.30;;;9.70;84.00;;;;;;4935722;29;20452;-78
2023/03/17 09:56:57;;;;;;;11.52;6.03;;;9.90;78.20;;;;;;4936081;29;20421;-77
2023/03/17 09:59:32;;;;;;;11.82;5.63;;;9.90;80.30;;;;;;4936513;29;20024;-78
2023/03/17 10:01:58;;;;;;;10.48;4.78;;;9.80;81.10;;;;;;4936913;29;20125;-77
2023/03/17 10:04:24;;;;;;;11.18;5.20;;;9.70;78.00;;;;;;4936316;29;20040;-77
2023/03/17 10:06:56;;;;;;;23.10;12.38;;;9.80;80.30;;;;;;4936037;29;20027;-77
2023/03/17 10:09:43;;;;;;;10.45;4.72;;;9.90;78.60;;;;;;4936696;29;20120;-77
2023/03/17 10:12:31;;;;;;;16.60;6.05;;;9.80;78.50;;;;;;4936433;29;20024;-78
2023/03/17 10:15:05;;;;;;;11.00;5.68;;;9.60;79.50;;;;;;4935924;29;20590;-78
2023/03/17 10:17:36;;;;;;;8.75;4.45;;;9.50;80.70;;;;;;4936066;29;20056;-77
2023/03/17 10:20:12;;;;;;;10.00;5.10;;;9.60;77.20;;;;;;4936034;29;20092;-77
2023/03/17 10:22:49;;;;;;;8.82;4.47;;;9.70;79.60;;;;;;4941460;28;20035;-78
2023/03/17 10:25:20;;;;;;;9.43;4.60;;;9.60;79.60;;;;;;4967654;28;20042;-77
2023/03/17 10:28:11;;;;;;;10.87;4.90;;;9.60;77.50;;;;;;4959537;28;20029;-77
2023/03/17 10:30:37;;;;;;;4.80;3.42;;;9.70;80.70;;;;;;4976530;28;20093;-74
2023/03/17 10:33:08;;;;;;;6.22;3.53;;;9.70;77.60;;;;;;4957344;29;20363;-76
2023/03/17 10:35:36;;;;;;;6.80;3.67;;;9.60;78.50;;;;;;4962627;28;20042;-76
2023/03/17 10:38:20;;;;;;;6.47;3.33;;;9.70;73.40;;;;;;4976339;28;20031;-75
2023/03/17 10:40:58;;;;;;;8.23;4.20;;;9.50;73.60;;;;;;4976066;28;20463;-75
2023/03/17 10:43:29;;;;;;;10.32;3.97;;;9.90;79.60;;;;;;4964568;28;20034;-76
2023/03/17 10:46:15;;;;;;;10.02;4.28;;;10.10;77.60;;;;;;4970078;28;20031;-75
2023/03/17 10:48:47;;;;;;;7.78;3.58;;;10.10;80.30;;;;;;4960745;28;20042;-75
2023/03/17 10:51:23;;;;;;;9.57;4.27;;;10.10;76.70;;;;;;4953956;29;20470;-76
2023/03/17 10:53:52;;;;;;;33.10;29.75;;;10.20;74.90;;;;;;4955843;29;20054;-77
2023/03/17 10:56:29;;;;;;;11.00;3.90;;;10.40;79.10;;;;;;4956314;29;20031;-77
2023/03/17 10:58:57;;;;;;;8.82;4.68;;;10.20;76.30;;;;;;4956730;29;20047;-76
2023/03/17 11:01:38;;;;;;;6.78;3.40;;;10.10;72.10;;;;;;4955854;28;20016;-74
2023/03/17 11:04:32;;;;;;;7.03;3.63;;;10.00;72.70;;;;;;4956692;29;20042;-78
2023/03/17 11:06:59;;;;;;;;;;;10.00;75.80;;;;;;4946591;28;20038;-76
2023/03/17 11:09:28;;;;;;;5.38;3.20;;;10.10;74.20;;;;;;4959818;28;19906;-76
2023/03/17 11:12:19;;;;;;;6.85;3.42;;;10.30;74.50;;;;;;4966245;28;20038;-77
2023/03/17 11:14:47;;;;;;;7.03;3.13;;;10.30;69.10;;;;;;4956811;28;20463;-77
2023/03/17 11:17:19;;;;;;;6.13;3.35;;;10.30;70.10;;;;;;4956437;29;20035;-77
2023/03/17 11:19:51;;;;;;;7.95;3.60;;;10.40;69.40;;;;;;4956357;28;20038;-77
2023/03/17 11:22:36;;;;;;;9.43;4.20;;;10.20;67.90;;;;;;4957436;28;20023;-77
2023/03/17 11:28:57;;;;;;;5.55;3.35;;;10.10;69.80;;;;;;4937857;29;20052;-76
2023/03/17 11:31:36;;;;;;;8.35;3.65;;;10.20;74.00;;;;;;4954464;29;20043;-74
2023/03/17 11:34:20;;;;;;;7.65;3.38;;;10.20;70.30;;;;;;4955128;29;20035;-75
2023/03/17 11:37:30;;;;;;;9.40;3.75;;;10.20;72.50;;;;;;4937542;29;20031;-76
2023/03/17 11:40:16;;;;;;;7.30;3.65;;;10.30;69.70;;;;;;4944860;29;20039;-77
2023/03/17 11:43:05;;;;;;;6.85;3.42;;;10.40;69.70;;;;;;4942794;29;20118;-75
2023/03/17 11:45:53;;;;;;;7.95;2.92;;;10.50;75.00;;;;;;4937205;29;20415;-77
2023/03/17 11:48:52;;;;;;;6.22;2.83;;;10.50;71.40;;;;;;4953325;29;20035;-77
2023/03/17 11:51:29;;;;;;;9.02;3.60;;;10.60;70.40;;;;;;4943358;29;20129;-75
2023/03/17 11:54:10;;;;;;;8.13;3.28;;;10.60;68.90;;;;;;4953960;29;20027;-75
2023/03/17 11:56:39;;;;;;;6.53;2.97;;;10.40;68.60;;;;;;4954035;29;20031;-73
2023/03/17 11:59:14;;;;;;;5.35;2.72;;;10.50;68.60;;;;;;4952972;29;20028;-75
2023/03/17 12:02:17;;;;;;;5.35;2.63;;;10.60;69.50;;;;;;4954302;29;20035;-73
2023/03/17 12:05:05;;;;;;;;;;;10.60;65.60;;;;;;4876666;29;20048;-74
2023/03/17 12:07:54;;;;;;;6.60;2.58;;;10.60;67.00;;;;;;4876468;29;20067;-78
2023/03/17 12:10:44;;;;;;;7.03;2.70;;;10.50;65.80;;;;;;4876524;29;20524;-78
2023/03/17 12:13:22;;;;;;;5.15;2.63;;;10.60;67.80;;;;;;4876887;29;20032;-75
2023/03/17 12:15:51;;;;;;;5.07;2.25;;;10.60;70.10;;;;;;4876198;29;20045;-78
2023/03/17 12:18:31;;;;;;;7.03;2.88;;;10.70;69.00;;;;;;4860747;29;20389;-79
2023/03/17 12:21:17;;;;;;;5.70;2.85;;;10.70;68.30;;;;;;4876693;29;20037;-77
2023/03/17 12:23:48;;;;;;;6.82;2.78;;;10.80;68.90;;;;;;4876382;29;20492;-73
2023/03/17 12:26:26;;;;;;;5.57;2.80;;;10.90;69.60;;;;;;4876210;29;20033;-79
2023/03/17 12:28:55;;;;;;;4.53;2.53;;;11.10;68.70;;;;;;4876505;29;20053;-76
2023/03/17 12:31:24;;;;;;;5.70;3.40;;;11.10;69.00;;;;;;4876440;29;20070;-78
2023/03/17 12:34:06;;;;;;;7.10;3.30;;;11.00;68.60;;;;;;4876488;29;20037;-76
2023/03/17 12:36:36;;;;;;;4.82;2.97;;;11.10;69.90;;;;;;4876424;29;20037;-78
2023/03/17 12:39:20;;;;;;;5.63;2.67;;;10.90;68.40;;;;;;4876118;29;20029;-76
2023/03/17 12:42:04;;;;;;;6.70;3.22;;;10.90;65.50;;;;;;4936184;29;20498;-78
2023/03/17 12:45:01;;;;;;;5.53;2.58;;;11.00;70.10;;;;;;4954208;29;20538;-78
2023/03/17 12:47:49;;;;;;;3.97;2.65;;;11.00;69.80;;;;;;4943699;29;20406;-73
2023/03/17 12:50:30;;;;;;;6.38;2.90;;;10.90;68.70;;;;;;4954004;28;20119;-75
2023/03/17 12:53:26;;;;;;;6.82;2.90;;;11.00;67.70;;;;;;4957298;29;20031;-74
2023/03/17 12:55:54;;;;;;;4.53;2.42;;;10.90;69.60;;;;;;4917886;29;20051;-75
2023/03/17 12:58:28;;;;;;;5.82;2.55;;;10.90;66.70;;;;;;4916957;29;20500;-76